EDLN

Mönchengladbach Airport

Mönchengladbach, Germany
METAR EDLN 161850Z 29008KT 9999 -SHRA BKN012TCU 03/02 Q1016
Observed Flight Rules
Dec-16 @ 18:50 UTC (6 hours ago) Marginal Visual Flight Rules
Wind Visibility Clouds Conditions
290° at 8 knots 10,000+ meters
  • Broken at 1,200' AGL
  • Light Rain
Temperatures Readings
Current 3°C / 37°F
Dewpoint 2°C / 36°F
Humidity 93%
Altimeter 30" Hg
Pressure 1016 hPa
Elevation 38
METAR EDLN 161850Z 29008KT 9999 -SHRA BKN012TCU 03/02 Q1016
Observed Flight Rules
Dec-16 @ 18:50 UTC
(6 hours ago)
MVFR
Wind Visibility
290° at 8 knots 10,000+ meters
Clouds
  • Broken at 1,200' AGL
Conditions
  • Light Rain
Temperature Dewpoint
3°C / 37°F 2°C / 36°F
Humidity Altimeter Pressure
93% 30" Hg 1016 hPa